Time;durP1;ratioP1;P1;durP2;ratioP2;P2;SDS_P1;SDS_P2;PMS_P1;PMS_P2;Temp;Humidity;BMP_temperature;BMP_pressure;BME280_temperature;BME280_humidity;BME280_pressure;Samples;Min_cycle;Max_cycle;Signal;HPM_P1;HPM_P2
2022/10/20 00:01:11;;;;;;;8.43;3.60;;;;;;;10.17;63.70;100599.48;126333;1086;104165;-76
2022/10/20 00:03:41;;;;;;;11.67;3.60;;;;;;;10.15;64.06;100598.55;126337;1086;104325;-76
2022/10/20 00:06:12;;;;;;;9.30;3.70;;;;;;;10.17;63.95;100607.35;126325;1086;104234;-76
2022/10/20 00:08:42;;;;;;;7.40;3.13;;;;;;;10.16;64.22;100602.05;126333;1086;104162;-76
2022/10/20 00:11:15;;;;;;;8.00;3.63;;;;;;;10.18;64.49;100608.27;126276;1086;104179;-76
2022/10/20 00:13:46;;;;;;;7.42;3.15;;;;;;;10.18;64.52;100616.14;126334;1086;104191;-77
2022/10/20 00:16:14;;;;;;;7.57;3.27;;;;;;;10.19;64.75;100617.91;126333;1086;103380;-76
2022/10/20 00:18:44;;;;;;;12.07;3.20;;;;;;;10.21;64.86;100613.63;126350;1086;102215;-76
2022/10/20 00:21:16;;;;;;;8.00;3.15;;;;;;;10.21;65.34;100619.77;126300;1086;103061;-76
2022/10/20 00:23:45;;;;;;;8.50;3.25;;;;;;;10.22;64.84;100610.16;126328;1086;102873;-76
2022/10/20 00:26:16;;;;;;;8.70;3.07;;;;;;;10.23;65.86;100609.33;126377;1086;104203;-76
2022/10/20 00:28:45;;;;;;;7.23;3.50;;;;;;;10.21;65.03;100619.77;126285;1086;102231;-76
2022/10/20 00:31:14;;;;;;;8.90;3.40;;;;;;;10.20;66.26;100622.33;126300;1086;104213;-76
2022/10/20 00:33:43;;;;;;;9.73;3.10;;;;;;;10.19;66.09;100638.88;126384;1086;104242;-76
2022/10/20 00:36:15;;;;;;;7.90;3.00;;;;;;;10.17;66.08;100633.58;126262;1086;104413;-75
2022/10/20 00:38:47;;;;;;;7.37;3.70;;;;;;;10.14;66.40;100637.81;126372;1086;101926;-76
2022/10/20 00:41:18;;;;;;;8.37;3.30;;;;;;;10.12;65.79;100626.38;126312;1086;104175;-76
2022/10/20 00:43:55;;;;;;;6.80;3.10;;;;;;;10.08;65.76;100631.50;126375;1086;104159;-77
2022/10/20 00:46:26;;;;;;;4.30;2.60;;;;;;;10.08;65.68;100641.08;126327;1085;102748;-76
2022/10/20 00:48:58;;;;;;;5.83;3.00;;;;;;;10.07;66.05;100641.93;126306;1086;104194;-76
2022/10/20 00:51:31;;;;;;;5.10;2.90;;;;;;;10.05;66.81;100647.11;126334;1085;104293;-76
2022/10/20 00:54:02;;;;;;;7.27;2.80;;;;;;;10.03;66.74;100648.75;126314;1086;104207;-76
2022/10/20 00:56:31;;;;;;;7.93;2.53;;;;;;;10.02;66.68;100646.98;126342;1086;104254;-76
2022/10/20 00:59:01;;;;;;;8.23;2.73;;;;;;;10.01;66.44;100641.69;126344;1086;104222;-76
2022/10/20 01:01:30;;;;;;;4.50;2.27;;;;;;;10.01;67.57;100653.05;126282;1086;102434;-76
2022/10/20 01:03:59;;;;;;;3.80;2.27;;;;;;;10.01;68.01;100650.44;125984;1086;104226;-76
2022/10/20 01:06:27;;;;;;;7.60;2.10;;;;;;;10.02;67.34;100664.42;126320;1086;102183;-76
2022/10/20 01:08:55;;;;;;;5.23;2.50;;;;;;;10.01;67.38;100653.05;126278;1086;102212;-76
2022/10/20 01:11:34;;;;;;;4.60;2.10;;;;;;;10.00;67.17;100646.05;126347;1085;102922;-76
2022/10/20 01:14:23;;;;;;;3.83;2.20;;;;;;;9.97;67.00;100656.41;126349;1086;104382;-76
2022/10/20 01:17:06;;;;;;;8.27;2.40;;;;;;;9.94;67.85;100644.88;126356;1086;104352;-76
2022/10/20 01:20:14;;;;;;;3.67;2.20;;;;;;;9.89;67.13;100653.47;126300;1086;104047;-76
2022/10/20 01:22:59;;;;;;;5.17;2.17;;;;;;;9.86;67.67;100652.42;126310;1086;104242;-76
2022/10/20 01:25:45;;;;;;;4.23;2.17;;;;;;;9.81;67.70;100654.86;126359;1086;103166;-76
2022/10/20 01:28:19;;;;;;;22.93;3.17;;;;;;;9.79;67.45;100653.91;126296;1086;108472;-76
2022/10/20 01:30:53;;;;;;;9.07;1.83;;;;;;;9.76;67.05;100666.89;126322;1086;104290;-77
2022/10/20 01:33:32;;;;;;;9.93;2.05;;;;;;;9.70;66.78;100659.66;126327;1086;104217;-76
2022/10/20 01:36:06;;;;;;;7.03;1.80;;;;;;;9.65;66.87;100655.08;126380;1086;104162;-76
2022/10/20 01:38:40;;;;;;;8.17;1.73;;;;;;;9.58;66.57;100664.37;126319;1086;119071;-76
2022/10/20 01:41:14;;;;;;;10.45;2.08;;;;;;;9.51;66.49;100670.20;126305;1086;104164;-76
2022/10/20 01:43:45;;;;;;;7.10;1.80;;;;;;;9.44;66.44;100678.62;126298;1086;104235;-76
2022/10/20 01:46:17;;;;;;;8.73;1.90;;;;;;;9.37;66.23;100684.44;126331;1086;104228;-76
2022/10/20 01:48:47;;;;;;;5.67;1.80;;;;;;;9.31;66.50;100687.67;126298;1086;103341;-76
2022/10/20 01:51:15;;;;;;;3.60;1.57;;;;;;;9.26;66.24;100705.80;126333;1086;104221;-75
2022/10/20 01:53:46;;;;;;;4.90;1.67;;;;;;;9.20;66.27;100705.53;126332;1086;104328;-76
2022/10/20 01:56:19;;;;;;;7.97;2.00;;;;;;;9.14;65.92;100705.25;126362;1086;104232;-76
2022/10/20 01:59:18;;;;;;;4.40;1.65;;;;;;;9.07;66.64;100700.56;126304;1086;104328;-76
2022/10/20 02:02:24;;;;;;;3.03;1.63;;;;;;;8.99;66.09;100711.59;126372;1086;104158;-76
2022/10/20 02:05:17;;;;;;;2.00;1.30;;;;;;;8.90;66.49;100708.56;126305;1086;103161;-76
2022/10/20 02:07:45;;;;;;;2.93;1.43;;;;;;;8.85;66.60;100723.16;126291;1086;104040;-76
2022/10/20 02:10:18;;;;;;;4.90;1.67;;;;;;;8.78;66.80;100736.78;126326;1086;104165;-76
2022/10/20 02:12:53;;;;;;;4.85;1.90;;;;;;;8.72;66.75;100731.26;126394;1085;104254;-76
2022/10/20 02:15:24;;;;;;;3.13;1.50;;;;;;;8.67;66.49;100732.77;125971;1086;104232;-76
2022/10/20 02:17:58;;;;;;;3.97;1.57;;;;;;;8.62;66.91;100750.87;126325;1086;103465;-76
2022/10/20 02:20:29;;;;;;;4.35;1.55;;;;;;;8.58;66.50;100749.80;126353;1086;102364;-76
2022/10/20 02:22:58;;;;;;;1.97;1.37;;;;;;;8.54;66.87;100774.04;126320;1086;104245;-76
2022/10/20 02:25:30;;;;;;;3.50;1.53;;;;;;;8.50;66.85;100755.51;126358;1086;104184;-76
2022/10/20 02:28:01;;;;;;;2.10;1.60;;;;;;;8.48;66.67;100781.59;126350;1086;104165;-76
2022/10/20 02:30:30;;;;;;;4.10;1.70;;;;;;;8.43;66.65;100775.18;126325;1086;104165;-76
2022/10/20 02:32:59;;;;;;;4.20;1.40;;;;;;;8.38;67.00;100793.30;126294;1086;102981;-76
2022/10/20 02:35:30;;;;;;;1.80;1.33;;;;;;;8.33;66.53;100793.88;126369;1086;104266;-76
2022/10/20 02:37:59;;;;;;;2.63;1.60;;;;;;;8.27;66.33;100805.83;126303;1086;104295;-75
2022/10/20 02:40:28;;;;;;;4.73;1.83;;;;;;;8.22;66.66;100802.07;126318;1086;104190;-75
2022/10/20 02:42:56;;;;;;;2.03;1.43;;;;;;;8.20;66.44;100810.67;126345;1086;104155;-75
2022/10/20 02:45:24;;;;;;;1.97;1.37;;;;;;;8.19;65.81;100812.38;126317;1086;104424;-76
2022/10/20 02:47:53;;;;;;;5.17;1.70;;;;;;;8.17;66.07;100818.37;126337;1086;104775;-76
2022/10/20 02:50:21;;;;;;;3.47;1.40;;;;;;;8.14;65.91;100823.44;126295;1085;102831;-76
2022/10/20 02:52:50;;;;;;;1.87;1.40;;;;;;;8.13;66.23;100827.75;126376;1086;104178;-76
2022/10/20 02:55:18;;;;;;;1.43;1.13;;;;;;;8.11;65.37;100829.39;126318;1086;104287;-76
2022/10/20 02:57:46;;;;;;;2.03;1.30;;;;;;;8.10;65.38;100827.59;126266;1086;103068;-76
2022/10/20 03:00:15;;;;;;;2.87;1.20;;;;;;;8.08;65.63;100834.47;126322;1086;104072;-76
2022/10/20 03:02:43;;;;;;;2.10;1.07;;;;;;;8.08;65.58;100834.47;126352;1086;104166;-76
2022/10/20 03:05:12;;;;;;;4.87;1.30;;;;;;;7.99;65.21;100831.38;126287;1086;104689;-76
2022/10/20 03:07:41;;;;;;;3.40;1.30;;;;;;;8.05;65.14;100844.77;126380;1086;102164;-76
2022/10/20 03:10:10;;;;;;;1.60;1.17;;;;;;;8.04;65.01;100838.65;126267;1086;104165;-76
2022/10/20 03:12:38;;;;;;;1.63;1.27;;;;;;;8.04;64.66;100840.34;125952;1086;104229;-75
2022/10/20 03:15:07;;;;;;;2.83;1.13;;;;;;;8.00;64.46;100844.53;126345;1086;103282;-76
2022/10/20 03:17:36;;;;;;;2.00;1.27;;;;;;;7.99;63.38;100847.06;126367;1086;102215;-76
2022/10/20 03:20:06;;;;;;;3.60;1.27;;;;;;;7.97;63.44;100851.32;126312;1086;102902;-77
2022/10/20 03:22:35;;;;;;;3.63;1.30;;;;;;;7.94;63.57;100843.32;126370;1086;104330;-76
2022/10/20 03:25:04;;;;;;;6.90;1.30;;;;;;;7.92;63.58;100849.36;126643;1086;104260;-77
2022/10/20 03:27:33;;;;;;;1.67;0.90;;;;;;;7.89;62.70;100849.20;126335;1086;104178;-76
2022/10/20 03:30:01;;;;;;;1.73;1.03;;;;;;;7.85;62.63;100862.94;126352;1086;104158;-77
2022/10/20 03:32:30;;;;;;;2.00;1.43;;;;;;;7.82;62.89;100854.02;126323;1085;102812;-77
2022/10/20 03:34:58;;;;;;;4.07;1.47;;;;;;;7.78;63.11;100858.20;126306;1086;104232;-76
2022/10/20 03:37:26;;;;;;;5.00;1.07;;;;;;;7.76;62.78;100851.08;126345;1086;104260;-76
2022/10/20 03:39:55;;;;;;;2.97;1.27;;;;;;;7.73;62.70;100876.23;126352;1085;104273;-76
2022/10/20 03:42:23;;;;;;;2.60;1.13;;;;;;;7.68;62.33;100874.19;126384;1086;104230;-76
2022/10/20 03:44:52;;;;;;;3.97;1.10;;;;;;;7.64;61.49;100886.19;126338;1086;104171;-76
2022/10/20 03:47:20;;;;;;;2.67;1.30;;;;;;;7.59;61.63;100878.91;126320;1086;102808;-77
2022/10/20 03:49:49;;;;;;;2.20;1.33;;;;;;;7.55;61.41;100878.75;126398;1086;104229;-76
2022/10/20 03:52:17;;;;;;;3.53;1.20;;;;;;;7.51;61.23;100888.95;126356;1086;104229;-76
2022/10/20 03:54:46;;;;;;;2.20;1.10;;;;;;;7.50;61.35;100888.06;126308;1086;102824;-75
2022/10/20 03:57:14;;;;;;;5.83;1.10;;;;;;;7.46;61.71;100875.64;126310;1086;102942;-76
2022/10/20 03:59:42;;;;;;;5.47;1.03;;;;;;;7.36;61.56;100862.92;126328;1086;104238;-76
2022/10/20 04:02:27;;;;;;;1.33;0.97;;;;;;;7.38;61.44;100866.50;126362;1086;104169;-77
2022/10/20 04:04:55;;;;;;;4.93;1.17;;;;;;;7.24;61.25;100867.47;126350;1086;102825;-75
2022/10/20 04:07:24;;;;;;;2.93;1.33;;;;;;;7.27;61.04;100883.30;125989;1086;103305;-75
2022/10/20 04:09:53;;;;;;;4.47;1.37;;;;;;;7.23;60.90;100886.55;126337;1086;104169;-75
2022/10/20 04:12:21;;;;;;;1.50;1.17;;;;;;;7.19;60.37;100883.77;126333;1086;104350;-75
2022/10/20 04:14:50;;;;;;;3.77;1.40;;;;;;;7.16;60.68;100873.16;126001;1086;104143;-75
2022/10/20 04:17:19;;;;;;;5.13;1.27;;;;;;;7.14;60.56;100885.23;126302;1086;104162;-75
2022/10/20 04:19:47;;;;;;;4.00;1.60;;;;;;;7.12;61.02;100883.34;126300;1086;104244;-76
2022/10/20 04:22:16;;;;;;;1.77;1.40;;;;;;;7.09;60.48;100885.77;126326;1086;104235;-75
2022/10/20 04:24:44;;;;;;;8.33;3.40;;;;;;;7.07;60.90;100893.52;126280;1086;104168;-75
2022/10/20 04:27:13;;;;;;;10.83;3.40;;;;;;;7.02;60.41;100884.55;126318;1086;104235;-75
2022/10/20 04:29:41;;;;;;;10.60;2.60;;;;;;;7.01;60.68;100886.27;126325;1086;104312;-76
2022/10/20 04:32:10;;;;;;;9.00;2.93;;;;;;;7.02;60.85;100887.16;126329;1086;104226;-76
2022/10/20 04:34:38;;;;;;;7.87;2.10;;;;;;;7.01;60.79;100890.56;126326;1086;104389;-75
2022/10/20 04:37:07;;;;;;;4.03;2.20;;;;;;;7.00;61.02;100883.57;126421;1086;104232;-75
2022/10/20 04:39:35;;;;;;;3.07;1.60;;;;;;;6.99;60.60;100889.59;126493;1086;104165;-75
2022/10/20 04:42:04;;;;;;;4.03;1.83;;;;;;;6.96;60.61;100898.13;126364;1086;104181;-75
2022/10/20 04:44:32;;;;;;;3.23;1.83;;;;;;;6.94;60.95;100901.48;126180;1086;102556;-75
2022/10/20 04:47:01;;;;;;;6.33;2.20;;;;;;;6.92;60.82;100903.09;126316;1086;104290;-75
2022/10/20 04:49:29;;;;;;;5.97;2.40;;;;;;;6.90;61.28;100909.94;125964;1086;104236;-75
2022/10/20 04:51:58;;;;;;;9.50;3.83;;;;;;;6.85;61.05;100917.50;126345;1086;104103;-75
2022/10/20 04:54:26;;;;;;;8.13;3.03;;;;;;;6.82;61.39;100927.76;126297;1086;102825;-75
2022/10/20 04:56:55;;;;;;;7.90;2.80;;;;;;;6.78;61.58;100929.30;126317;1086;102164;-75
2022/10/20 04:59:27;;;;;;;9.93;2.23;;;;;;;6.76;61.34;100928.33;126304;1086;104274;-75
2022/10/20 05:01:55;;;;;;;8.53;1.90;;;;;;;6.75;61.41;100923.02;126266;1085;104334;-76
2022/10/20 05:04:24;;;;;;;6.30;2.10;;;;;;;6.75;61.71;100934.34;126309;1086;102528;-75
2022/10/20 05:06:53;;;;;;;6.17;2.10;;;;;;;6.74;62.07;100942.97;126312;1086;104180;-75
2022/10/20 05:09:21;;;;;;;4.90;1.87;;;;;;;6.74;61.92;100957.72;126295;1085;104152;-75
2022/10/20 05:11:50;;;;;;;6.50;2.20;;;;;;;6.72;62.48;100956.75;126263;1086;104367;-75
2022/10/20 05:14:18;;;;;;;8.77;2.10;;;;;;;6.71;62.54;100954.94;126399;1086;104238;-75
2022/10/20 05:16:46;;;;;;;5.37;2.50;;;;;;;6.70;62.52;100953.13;126303;1086;102453;-76
2022/10/20 05:19:15;;;;;;;7.73;2.73;;;;;;;6.71;63.25;100960.16;126271;1086;104284;-75
2022/10/20 05:21:44;;;;;;;8.27;2.90;;;;;;;6.71;62.90;100955.83;126191;1086;104238;-76
2022/10/20 05:24:15;;;;;;;7.93;2.43;;;;;;;6.74;63.38;100961.22;126537;1086;104158;-77
2022/10/20 05:26:44;;;;;;;8.93;2.60;;;;;;;6.77;63.30;100956.19;126114;1086;102945;-77
2022/10/20 05:29:14;;;;;;;7.27;2.87;;;;;;;6.80;63.08;100955.47;126275;1086;104028;-75
2022/10/20 05:31:46;;;;;;;7.70;3.07;;;;;;;6.81;63.05;100960.78;126240;1086;104705;-78
2022/10/20 05:34:18;;;;;;;6.03;2.60;;;;;;;6.77;63.12;100956.19;126383;1086;104168;-76
2022/10/20 05:36:47;;;;;;;8.77;2.63;;;;;;;6.86;63.68;100983.61;126477;1086;104369;-77
2022/10/20 05:39:16;;;;;;;5.57;2.30;;;;;;;6.87;63.59;100991.52;126764;1086;104163;-75
2022/10/20 05:41:45;;;;;;;9.40;2.53;;;;;;;6.90;63.90;100990.81;126316;1086;104152;-75
2022/10/20 05:44:15;;;;;;;4.43;2.30;;;;;;;6.91;63.38;100998.73;126298;1086;102796;-75
2022/10/20 05:46:43;;;;;;;6.00;2.47;;;;;;;6.93;63.71;101006.64;126287;1086;104238;-74
2022/10/20 05:49:25;;;;;;;;;;;;;;;;;;;;;
2022/10/20 05:51:53;;;;;;;7.20;2.17;;;;;;;6.96;62.91;101004.22;126217;1086;104203;-75
2022/10/20 05:54:24;;;;;;;8.43;2.20;;;;;;;6.98;62.71;101006.11;126366;1086;104308;-75
2022/10/20 06:00:28;;;;;;;;;;;;;;;;;;;;;
2022/10/20 06:03:19;;;;;;;5.90;2.70;;;;;;;7.04;62.12;101029.03;127446;1086;103062;-76
2022/10/20 06:06:26;;;;;;;8.20;2.40;;;;;;;7.07;62.04;101018.78;127739;1086;104287;-78
2022/10/20 06:09:32;;;;;;;12.73;3.03;;;;;;;7.11;61.53;101032.92;128893;1085;102011;-77
2022/10/20 06:12:30;;;;;;;8.67;2.10;;;;;;;7.15;61.29;101030.59;127030;1086;104362;-76
2022/10/20 06:15:17;;;;;;;5.20;2.07;;;;;;;7.20;61.38;101029.13;128042;1086;104155;-77
2022/10/20 06:18:07;;;;;;;8.30;2.10;;;;;;;7.22;60.51;101042.27;126774;1086;103509;-78
2022/10/20 06:24:07;;;;;;;;;;;;;;;;;;;;;
2022/10/20 06:26:40;;;;;;;12.83;2.00;;;;;;;7.39;60.29;101051.08;126372;1086;104156;-77
2022/10/20 06:29:18;;;;;;;6.93;2.40;;;;;;;7.45;59.54;101051.42;126027;1086;104285;-77
2022/10/20 06:31:53;;;;;;;5.27;1.60;;;;;;;7.50;59.22;101055.19;126027;1086;104258;-76
2022/10/20 06:34:36;;;;;;;4.10;1.60;;;;;;;7.56;59.53;101045.09;126331;1086;107984;-76
2022/10/20 06:37:10;;;;;;;6.93;2.30;;;;;;;7.68;59.89;101057.03;127694;1086;103552;-76
2022/10/20 06:39:55;;;;;;;4.13;1.53;;;;;;;7.72;58.38;101049.45;127046;1086;102457;-77
2022/10/20 06:43:04;;;;;;;5.47;1.70;;;;;;;7.82;58.52;101037.83;127246;1086;102337;-80
2022/10/20 06:45:37;;;;;;;10.87;2.20;;;;;;;7.86;58.52;101044.11;127889;1086;102530;-78
2022/10/20 06:48:34;;;;;;;;;;;;;;;;;;;;;
2022/10/20 06:51:13;;;;;;;5.13;1.70;;;;;;;7.99;57.40;101059.63;126270;1086;105212;-78
2022/10/20 06:53:51;;;;;;;5.13;1.80;;;;;;;8.04;57.14;101057.27;127217;1085;104156;-77
2022/10/20 06:57:06;;;;;;;5.43;1.93;;;;;;;8.05;56.52;101053.85;127323;1086;102018;-77
2022/10/20 06:59:43;;;;;;;13.93;2.20;;;;;;;7.98;56.41;101042.17;127057;1086;104158;-77
2022/10/20 07:05:16;;;;;;;8.85;1.90;;;;;;;7.98;56.42;101050.02;126909;1087;104219;-80
2022/10/20 07:08:17;;;;;;;;;;;;;;;;;;;;;
2022/10/20 07:15:01;;;;;;;4.90;1.63;;;;;;;8.30;55.14;101060.41;127626;1090;101860;-78
2022/10/20 07:25:40;;;;;;;8.60;1.77;;;;;;;8.33;53.96;101071.93;126635;1089;102604;-79
2022/10/20 07:33:05;;;;;;;5.50;1.67;;;;;;;8.40;54.01;101071.45;126884;1095;103607;-77
2022/10/20 07:35:55;;;;;;;9.07;2.17;;;;;;;8.38;53.69;101070.48;126615;1093;107812;-78
2022/10/20 07:39:18;;;;;;;;;;;;;;;;;;;;;
2022/10/20 07:42:10;;;;;;;10.37;1.80;;;;;;;8.35;53.37;101077.24;126915;1086;104225;-76
2022/10/20 07:44:55;;;;;;;2.83;1.40;;;;;;;8.39;54.22;101071.37;126761;1089;104187;-76
2022/10/20 07:47:53;;;;;;;7.73;1.90;;;;;;;8.50;54.12;101069.36;128146;1086;105573;-78
2022/10/20 07:50:45;;;;;;;3.57;1.40;;;;;;;8.60;53.00;101074.25;126864;1086;102375;-77
2022/10/20 07:53:36;;;;;;;11.03;2.08;;;;;;;8.66;51.73;101085.03;127134;1086;101789;-78
2022/10/20 07:56:44;;;;;;;5.70;1.80;;;;;;;8.73;52.48;101078.43;127011;1086;104177;-77
2022/10/20 07:59:42;;;;;;;;;;;;;;;;;;;;;
2022/10/20 08:02:31;;;;;;;4.50;2.37;;;;;;;8.79;51.99;101078.75;126412;1086;103099;-78
2022/10/20 08:05:25;;;;;;;4.13;1.80;;;;;;;8.83;51.05;101066.72;126729;1086;102338;-78
2022/10/20 08:07:58;;;;;;;8.70;1.77;;;;;;;8.84;51.06;101068.52;126026;1087;102856;-79
2022/10/20 08:10:53;;;;;;;4.10;1.60;;;;;;;8.83;51.32;101064.98;126424;1086;102018;-80
2022/10/20 08:13:30;;;;;;;2.50;1.10;;;;;;;8.83;50.22;101077.18;126350;1086;104229;-78
2022/10/20 08:16:17;;;;;;;3.73;1.50;;;;;;;8.76;50.50;101047.19;127014;1086;102268;-79
2022/10/20 08:19:01;;;;;;;3.20;1.20;;;;;;;8.84;50.21;101081.61;126995;1085;104382;-77
2022/10/20 08:21:47;;;;;;;4.60;1.60;;;;;;;8.88;50.24;101063.53;126380;1086;103263;-77
2022/10/20 08:24:40;;;;;;;;;;;;;;;;;;;;;
2022/10/20 08:27:25;;;;;;;9.53;1.67;;;;;;;9.06;49.12;101060.05;126779;1086;104159;-78
2022/10/20 08:33:26;;;;;;;5.83;1.60;;;;;;;9.11;47.82;101071.64;126862;1085;104274;-78
2022/10/20 08:39:55;;;;;;;7.33;1.80;;;;;;;9.42;48.42;101070.56;126800;1086;111645;-79
2022/10/20 08:42:45;;;;;;;15.43;1.80;;;;;;;9.44;48.08;101068.91;127022;1086;102529;-79
2022/10/20 08:45:39;;;;;;;5.43;1.60;;;;;;;9.45;47.28;101052.38;126558;1087;102863;-78
2022/10/20 08:52:11;;;;;;;16.20;2.20;;;;;;;9.48;47.35;101060.39;127063;1086;104194;-79
2022/10/20 08:55:19;;;;;;;16.17;1.93;;;;;;;9.52;47.13;101051.83;127954;1085;104325;-78
2022/10/20 08:58:02;;;;;;;7.90;2.10;;;;;;;9.59;47.11;101047.81;126800;1089;104911;-78
2022/10/20 09:00:37;;;;;;;12.50;1.93;;;;;;;9.59;46.60;101053.05;126272;1086;118526;-78
2022/10/20 09:03:30;;;;;;;14.23;1.97;;;;;;;9.59;46.44;101056.55;126254;1086;102850;-77
2022/10/20 09:06:22;;;;;;;10.37;2.13;;;;;;;9.63;47.15;101050.66;126340;1086;102796;-79
2022/10/20 09:12:44;;;;;;;15.97;2.57;;;;;;;9.57;45.41;101057.30;126682;1089;104347;-80
2022/10/20 09:15:37;;;;;;;9.73;1.73;;;;;;;9.64;46.29;101065.53;126640;1089;104373;-78
2022/10/20 09:18:15;;;;;;;6.87;1.47;;;;;;;9.68;45.94;101077.97;125817;1089;104322;-79
2022/10/20 09:20:55;;;;;;;5.40;1.60;;;;;;;9.71;46.09;101069.37;126387;1089;104386;-78
2022/10/20 09:23:38;;;;;;;9.77;1.70;;;;;;;9.82;46.65;101069.88;126069;1087;104266;-80
2022/10/20 09:26:33;;;;;;;3.07;1.60;;;;;;;9.86;45.95;101111.13;125967;1086;104142;-79
2022/10/20 09:29:10;;;;;;;9.67;1.73;;;;;;;9.88;46.03;101073.69;126065;1086;104241;-78
2022/10/20 09:31:48;;;;;;;6.23;1.40;;;;;;;9.96;46.32;101076.67;126310;1086;102674;-78
2022/10/20 09:34:34;;;;;;;13.50;1.80;;;;;;;9.86;45.54;101080.59;126362;1086;102669;-79
2022/10/20 09:41:26;;;;;;;;;;;;;;;;;;;;;
2022/10/20 09:44:14;;;;;;;8.35;1.55;;;;;;;9.84;45.88;101086.57;126310;1086;104229;-79
2022/10/20 09:46:57;;;;;;;7.43;1.70;;;;;;;9.97;45.71;101096.83;127007;1086;104232;-79
2022/10/20 09:50:02;;;;;;;11.10;1.80;;;;;;;10.03;46.02;101075.23;127001;1086;102833;-81
2022/10/20 09:56:34;;;;;;;;;;;;;;;;;;;;;
2022/10/20 09:59:31;;;;;;;8.10;2.00;;;;;;;10.17;45.81;101097.74;127036;1085;104178;-79
2022/10/20 10:02:25;;;;;;;4.73;1.67;;;;;;;10.31;45.68;101092.25;127053;1086;104146;-78
2022/10/20 10:06:07;;;;;;;;;;;;;;;;;;;;;
2022/10/20 10:09:41;;;;;;;2.80;1.50;;;;;;;10.60;45.57;101089.26;126850;1086;102147;-80
2022/10/20 10:12:30;;;;;;;4.27;1.87;;;;;;;10.61;44.91;101116.39;126933;1086;104175;-78
2022/10/20 10:15:27;;;;;;;4.45;1.65;;;;;;;10.55;44.80;101116.11;126317;1086;103159;-77
2022/10/20 10:18:18;;;;;;;7.17;2.20;;;;;;;10.42;44.87;101112.04;126221;1086;104146;-78
2022/10/20 10:21:07;;;;;;;5.50;1.80;;;;;;;10.35;44.51;101105.63;126256;1086;103004;-79
2022/10/20 10:24:41;;;;;;;5.67;1.70;;;;;;;10.37;45.11;101101.33;127569;1085;104216;-79
2022/10/20 10:27:44;;;;;;;6.97;2.60;;;;;;;10.26;44.80;101103.42;127038;1086;104220;-78
2022/10/20 10:34:44;;;;;;;4.03;2.12;;;;;;;10.45;45.24;101080.69;126378;1089;107725;-76
2022/10/20 10:37:15;;;;;;;6.60;1.73;;;;;;;10.59;44.57;101089.19;126301;1086;102805;-78
2022/10/20 10:39:44;;;;;;;8.07;2.17;;;;;;;10.54;43.48;101098.59;126570;1086;102410;-79
2022/10/20 10:42:45;;;;;;;6.95;2.10;;;;;;;10.51;43.66;101093.20;126758;1086;102487;-78
2022/10/20 10:45:26;;;;;;;3.57;1.77;;;;;;;10.49;43.68;101074.77;127436;1086;102988;-79
2022/10/20 10:48:18;;;;;;;7.83;1.60;;;;;;;10.47;43.46;101084.31;127691;1085;102297;-77
2022/10/20 10:50:57;;;;;;;9.13;1.77;;;;;;;10.45;43.37;101083.31;126901;1086;104168;-77
2022/10/20 10:53:42;;;;;;;12.57;2.37;;;;;;;10.48;43.31;101075.59;126912;1086;104159;-78
2022/10/20 10:56:20;;;;;;;11.87;1.93;;;;;;;10.55;43.15;101074.13;127176;1086;104177;-77
2022/10/20 10:59:03;;;;;;;6.53;1.60;;;;;;;10.58;43.56;101082.14;126752;1086;102400;-78
2022/10/20 11:01:57;;;;;;;4.73;1.87;;;;;;;10.57;43.46;101076.00;126743;1089;102513;-78
2022/10/20 11:05:20;;;;;;;5.80;1.73;;;;;;;10.56;43.20;101089.05;127010;1086;102729;-76
2022/10/20 11:08:04;;;;;;;6.23;1.80;;;;;;;10.60;43.26;101070.89;127067;1086;104280;-77
2022/10/20 11:10:44;;;;;;;2.72;1.40;;;;;;;10.64;42.97;101066.66;127016;1086;104159;-78
2022/10/20 11:13:25;;;;;;;3.57;1.50;;;;;;;10.71;42.86;101063.49;126359;1086;102289;-78
2022/10/20 11:16:14;;;;;;;3.77;1.60;;;;;;;10.75;42.79;101072.39;126327;1086;104361;-77
2022/10/20 11:19:21;;;;;;;9.00;3.80;;;;;;;10.77;43.58;101069.02;126358;1086;104156;-77
2022/10/20 11:22:03;;;;;;;7.90;1.87;;;;;;;10.67;42.35;101061.55;126513;1086;102892;-77
2022/10/20 11:24:45;;;;;;;5.60;1.77;;;;;;;10.81;41.76;101070.04;126430;1086;102796;-77
2022/10/20 11:27:18;;;;;;;4.47;1.80;;;;;;;10.84;41.66;101082.41;126066;1086;104232;-76
2022/10/20 11:29:53;;;;;;;11.93;2.13;;;;;;;10.86;42.70;101055.41;126096;1086;102478;-76
2022/10/20 11:32:33;;;;;;;7.00;1.93;;;;;;;10.91;42.32;101058.23;126369;1086;104156;-76
2022/10/20 11:35:18;;;;;;;3.17;1.47;;;;;;;10.97;42.17;101056.76;126108;1086;104176;-76
2022/10/20 11:37:54;;;;;;;12.33;2.03;;;;;;;10.93;41.08;101065.32;126300;1089;104349;-77
2022/10/20 11:40:31;;;;;;;6.30;1.87;;;;;;;10.93;41.40;101061.81;126276;1086;102455;-76
2022/10/20 11:43:10;;;;;;;5.27;2.00;;;;;;;10.94;40.74;101097.75;126303;1086;102469;-76
2022/10/20 11:45:46;;;;;;;8.60;2.23;;;;;;;11.01;41.77;101062.14;126293;1086;102527;-77
2022/10/20 11:48:22;;;;;;;11.57;1.80;;;;;;;10.95;40.84;101078.52;126503;1089;104219;-78
2022/10/20 11:51:01;;;;;;;2.23;1.40;;;;;;;10.94;40.22;101076.75;126657;1086;104278;-78
2022/10/20 11:53:51;;;;;;;9.47;1.77;;;;;;;10.97;40.44;101076.88;126674;1086;102633;-75
2022/10/20 11:56:37;;;;;;;6.90;1.53;;;;;;;10.94;40.44;101068.87;126544;1086;107108;-77
2022/10/20 11:59:34;;;;;;;3.53;1.60;;;;;;;10.93;39.49;101088.95;126378;1086;102949;-77
2022/10/20 12:02:26;;;;;;;4.83;1.60;;;;;;;10.90;39.79;101086.19;126498;1086;101921;-76
2022/10/20 12:05:28;;;;;;;8.40;1.75;;;;;;;10.94;40.23;101066.23;126384;1086;102100;-77
2022/10/20 12:08:26;;;;;;;7.40;1.80;;;;;;;10.94;40.36;101087.25;126020;1086;104191;-76
2022/10/20 12:11:05;;;;;;;6.97;1.90;;;;;;;10.97;40.72;101071.63;126324;1086;102309;-77
2022/10/20 12:13:47;;;;;;;3.23;1.53;;;;;;;10.95;40.06;101094.27;126373;1086;104219;-76
2022/10/20 12:16:47;;;;;;;6.50;2.00;;;;;;;10.94;39.62;101089.88;126358;1086;104660;-76
2022/10/20 12:19:19;;;;;;;5.53;1.70;;;;;;;10.89;39.65;101079.17;127633;1086;102196;-76
2022/10/20 12:21:59;;;;;;;3.43;1.17;;;;;;;10.82;39.78;101086.70;126300;1086;102943;-78
2022/10/20 12:24:36;;;;;;;4.73;1.60;;;;;;;10.82;40.11;101097.21;125994;1086;104306;-76
2022/10/20 12:27:20;;;;;;;5.30;1.53;;;;;;;10.82;40.13;101095.47;126310;1086;102009;-76
2022/10/20 12:30:04;;;;;;;3.95;1.52;;;;;;;10.84;40.43;101093.80;126261;1086;102363;-76
2022/10/20 12:32:52;;;;;;;5.58;1.77;;;;;;;10.86;40.71;101085.98;126008;1086;104143;-74
2022/10/20 12:35:58;;;;;;;8.13;2.10;;;;;;;10.89;40.34;101088.75;126230;1086;104228;-76
2022/10/20 12:38:30;;;;;;;3.30;1.57;;;;;;;10.94;40.70;101092.50;126223;1086;104156;-76
2022/10/20 12:41:03;;;;;;;13.17;2.10;;;;;;;10.95;40.55;101100.44;125999;1086;104267;-74
2022/10/20 12:43:47;;;;;;;4.33;1.70;;;;;;;10.99;40.50;101079.57;126267;1086;102353;-76
2022/10/20 12:46:25;;;;;;;2.87;1.60;;;;;;;10.92;40.09;101102.94;126791;1085;104521;-78
2022/10/20 12:48:58;;;;;;;10.40;2.10;;;;;;;10.92;40.03;101109.89;127652;1087;102440;-76
2022/10/20 12:51:35;;;;;;;3.25;1.65;;;;;;;10.93;40.85;101103.82;126261;1086;102424;-77
2022/10/20 12:54:18;;;;;;;3.67;1.13;;;;;;;10.94;40.28;101121.38;126284;1086;103517;-77
2022/10/20 12:56:48;;;;;;;4.50;1.60;;;;;;;10.90;40.22;101111.56;126333;1086;102905;-77
2022/10/20 12:59:38;;;;;;;3.80;1.50;;;;;;;10.92;40.45;101109.89;126274;1087;102308;-76
2022/10/20 13:02:48;;;;;;;6.17;1.60;;;;;;;10.90;40.57;101124.69;125977;1086;104228;-77
2022/10/20 13:05:46;;;;;;;3.57;1.57;;;;;;;10.90;40.28;101130.83;126309;1087;104379;-75
2022/10/20 13:09:10;;;;;;;6.93;1.50;;;;;;;10.93;40.63;101109.07;126345;1086;104097;-75
2022/10/20 13:11:52;;;;;;;6.77;2.00;;;;;;;10.89;40.81;101117.63;126288;1086;104280;-77
2022/10/20 13:14:44;;;;;;;11.73;1.70;;;;;;;10.90;40.98;101116.81;127036;1086;102789;-76
2022/10/20 13:17:34;;;;;;;8.70;2.40;;;;;;;10.88;40.54;101118.48;126277;1086;104219;-77